Time;durP1;ratioP1;P1;durP2;ratioP2;P2;SDS_P1;SDS_P2;PMS_P1;PMS_P2;Temp;Humidity;BMP_temperature;BMP_pressure;BME280_temperature;BME280_humidity;BME280_pressure;Samples;Min_cycle;Max_cycle;Signal;HPM_P1;HPM_P2
2022/04/16 00:00:35;;;;;;;;;;;12.60;91.20;;;;;;5006315;28;19960;-82
2022/04/16 00:03:12;;;;;;;;;;;11.60;91.00;;;;;;5003597;28;19909;-81
2022/04/16 00:05:44;;;;;;;;;;;12.00;91.20;;;;;;4999993;28;19938;-82
2022/04/16 00:08:10;;;;;;;;;;;14.60;92.00;;;;;;4994534;28;19914;-82
2022/04/16 00:10:37;;;;;;;;;;;11.40;92.10;;;;;;5003407;28;19988;-82
2022/04/16 00:13:03;;;;;;;;;;;12.20;91.90;;;;;;4997895;28;19914;-82
2022/04/16 00:15:29;;;;;;;;;;;11.60;91.60;;;;;;5003986;28;19933;-82
2022/04/16 00:18:00;;;;;;;;;;;11.50;92.00;;;;;;4999973;28;20356;-84
2022/04/16 00:20:27;;;;;;;;;;;12.30;91.30;;;;;;5006652;28;19914;-81
2022/04/16 00:22:56;;;;;;;;;;;11.60;91.40;;;;;;4988392;28;19933;-81
2022/04/16 00:25:25;;;;;;;;;;;10.70;91.30;;;;;;4999171;28;19917;-81
2022/04/16 00:28:13;;;;;;;;;;;11.60;91.60;;;;;;5005409;28;19910;-81
2022/04/16 00:30:40;;;;;;;;;;;11.50;91.60;;;;;;4963125;29;19953;-80
2022/04/16 00:33:13;;;;;;;;;;;11.90;92.50;;;;;;4965925;29;19918;-80
2022/04/16 00:36:03;;;;;;;;;;;13.20;92.30;;;;;;4956643;29;19919;-80
2022/04/16 00:38:29;;;;;;;;;;;10.90;91.70;;;;;;4945911;29;20050;-81
2022/04/16 00:41:05;;;;;;;;;;;11.70;92.70;;;;;;4969440;28;19946;-80
2022/04/16 00:43:31;;;;;;;;;;;11.40;91.90;;;;;;4967570;29;19910;-81
2022/04/16 00:45:57;;;;;;;;;;;11.30;92.30;;;;;;4942505;29;19934;-82
2022/04/16 00:48:23;;;;;;;;;;;12.30;92.50;;;;;;4965782;29;19919;-81
2022/04/16 00:51:00;;;;;;;;;;;11.80;92.10;;;;;;4960887;29;19917;-81
2022/04/16 00:53:27;;;;;;;;;;;11.40;91.70;;;;;;4961547;29;19915;-80
2022/04/16 00:56:00;;;;;;;;;;;11.40;91.80;;;;;;4944741;29;20070;-81
2022/04/16 00:58:28;;;;;;;;;;;11.40;91.90;;;;;;4961006;29;19911;-83
2022/04/16 01:00:54;;;;;;;;;;;8.30;91.50;;;;;;4962108;29;19910;-84
2022/04/16 01:03:20;;;;;;;;;;;11.60;92.60;;;;;;4960935;29;20104;-81
2022/04/16 01:05:55;;;;;;;;;;;9.90;91.70;;;;;;4962147;29;20480;-80
2022/04/16 01:08:26;;;;;;;;;;;11.50;93.40;;;;;;4954379;29;19934;-81
2022/04/16 01:10:55;;;;;;;;;;;10.20;91.60;;;;;;4954546;29;19944;-83
2022/04/16 01:13:47;;;;;;;;;;;12.00;92.20;;;;;;4953121;29;19910;-82
2022/04/16 01:16:15;;;;;;;;;;;12.00;91.60;;;;;;4934677;29;20689;-80
2022/04/16 01:18:47;;;;;;;;;;;11.80;92.80;;;;;;4948966;29;19934;-82
2022/04/16 01:21:19;;;;;;;;;;;11.10;91.70;;;;;;4982217;28;19959;-81
2022/04/16 01:23:44;;;;;;;;;;;11.90;91.50;;;;;;5000496;28;19922;-81
2022/04/16 01:26:16;;;;;;;;;;;11.60;91.60;;;;;;5002579;28;19938;-82
2022/04/16 01:28:43;;;;;;;;;;;11.30;91.20;;;;;;4997958;28;19957;-82
2022/04/16 01:31:09;;;;;;;;;;;11.60;91.80;;;;;;5005299;28;20000;-82
2022/04/16 01:33:35;;;;;;;;;;;11.70;91.50;;;;;;5001951;28;19918;-83
2022/04/16 01:36:02;;;;;;;;;;;11.70;92.00;;;;;;4996651;28;19894;-83
2022/04/16 01:38:28;;;;;;;;;;;13.00;91.80;;;;;;5008915;28;19894;-83
2022/04/16 01:40:55;;;;;;;;;;;11.90;92.10;;;;;;4999483;28;19970;-83
2022/04/16 01:43:20;;;;;;;;;;;11.90;91.70;;;;;;5002353;28;19921;-83
2022/04/16 01:45:50;;;;;;;;;;;11.80;91.70;;;;;;4993964;28;20343;-82
2022/04/16 01:48:22;;;;;;;;;;;11.10;91.40;;;;;;4997590;28;20169;-83
2022/04/16 01:50:48;;;;;;;;;;;11.80;91.50;;;;;;5000768;28;20331;-83
2022/04/16 01:53:14;;;;;;;;;;;11.70;92.30;;;;;;4997702;28;19937;-82
2022/04/16 01:55:42;;;;;;;;;;;11.40;91.70;;;;;;5006426;28;19921;-83
2022/04/16 01:58:07;;;;;;;;;;;12.30;92.10;;;;;;5000675;28;19933;-84
2022/04/16 02:00:34;;;;;;;;;;;11.80;92.20;;;;;;5006207;28;19914;-82
2022/04/16 02:03:00;;;;;;;;;;;12.00;91.90;;;;;;5005651;28;19916;-81
2022/04/16 02:05:26;;;;;;;;;;;11.60;92.40;;;;;;5002821;28;19989;-82
2022/04/16 02:07:51;;;;;;;;;;;12.00;91.90;;;;;;4997737;28;19910;-82
2022/04/16 02:10:17;;;;;;;;;;;11.10;91.90;;;;;;4990897;28;19925;-81
2022/04/16 02:12:45;;;;;;;;;;;10.70;91.50;;;;;;4989690;28;19909;-82
2022/04/16 02:15:11;;;;;;;;;;;11.60;91.60;;;;;;5006765;28;19898;-81
2022/04/16 02:17:37;;;;;;;;;;;11.50;92.50;;;;;;4999086;28;19914;-81
2022/04/16 02:20:07;;;;;;;;;;;11.40;92.10;;;;;;4993346;28;20409;-80
2022/04/16 02:22:42;;;;;;;;;;;14.20;92.40;;;;;;5006547;28;19969;-81
2022/04/16 02:25:16;;;;;;;;;;;12.30;91.90;;;;;;5004915;28;19989;-81
2022/04/16 02:27:45;;;;;;;;;;;11.50;91.70;;;;;;5003295;28;19976;-80
2022/04/16 02:30:14;;;;;;;;;;;11.50;91.80;;;;;;5004359;28;19916;-81
2022/04/16 02:32:53;;;;;;;;;;;11.60;91.80;;;;;;5013565;28;19948;-83
2022/04/16 02:35:45;;;;;;;;;;;12.30;92.10;;;;;;5011308;28;20134;-81
2022/04/16 02:38:30;;;;;;;;;;;13.40;92.40;;;;;;5016660;28;19989;-82
2022/04/16 02:41:05;;;;;;;;;;;11.50;91.80;;;;;;4984445;28;19937;-80
2022/04/16 02:43:58;;;;;;;;;;;11.80;92.00;;;;;;4973658;29;19962;-84
2022/04/16 02:49:33;;;;;;;;;;;11.80;92.90;;;;;;4957751;28;19922;-80
2022/04/16 02:52:01;;;;;;;;;;;11.80;92.30;;;;;;4944637;29;19915;-81
2022/04/16 02:54:32;;;;;;;;;;;10.10;92.30;;;;;;4942955;28;19917;-80
2022/04/16 02:57:18;;;;;;;;;;;11.70;91.90;;;;;;4906674;29;19928;-81
2022/04/16 02:59:47;;;;;;;;;;;11.50;92.00;;;;;;4907482;29;19912;-81
2022/04/16 03:02:13;;;;;;;;;;;11.40;92.10;;;;;;4908173;29;19931;-81
2022/04/16 03:04:49;;;;;;;;;;;11.40;92.20;;;;;;4906048;29;19927;-82
2022/04/16 03:07:17;;;;;;;;;;;11.40;92.40;;;;;;4907974;29;19974;-81
2022/04/16 03:09:45;;;;;;;;;;;11.40;92.40;;;;;;4908577;29;20500;-81
2022/04/16 03:12:14;;;;;;;;;;;11.20;92.60;;;;;;4926156;29;19915;-82
2022/04/16 03:17:36;;;;;;;;;;;10.70;92.40;;;;;;4925574;29;20444;-83
2022/04/16 03:20:09;;;;;;;;;;;11.70;93.00;;;;;;4930273;29;20266;-83
2022/04/16 03:22:38;;;;;;;;;;;9.20;92.30;;;;;;4956017;29;19917;-81
2022/04/16 03:25:04;;;;;;;;;;;11.10;93.30;;;;;;4955365;29;20137;-81
2022/04/16 03:27:55;;;;;;;;;;;11.20;93.10;;;;;;4945726;29;19911;-80
2022/04/16 03:30:23;;;;;;;;;;;11.20;93.00;;;;;;4949278;29;19922;-82
2022/04/16 03:32:56;;;;;;;;;;;10.90;93.00;;;;;;4968617;29;19946;-81
2022/04/16 03:35:23;;;;;;;;;;;11.20;93.00;;;;;;4968290;29;19911;-82
2022/04/16 03:37:48;;;;;;;;;;;9.30;92.80;;;;;;4967686;29;20428;-82
2022/04/16 03:40:17;;;;;;;;;;;11.30;93.20;;;;;;4966744;29;19915;-81
2022/04/16 03:42:51;;;;;;;;;;;11.30;93.30;;;;;;4968061;29;19966;-82
2022/04/16 03:45:37;;;;;;;;;;;11.30;93.20;;;;;;4959642;28;19922;-82
2022/04/16 03:48:08;;;;;;;;;;;11.30;93.20;;;;;;4902537;29;19928;-82
2022/04/16 03:50:40;;;;;;;;;;;11.30;93.10;;;;;;4900812;29;20014;-82
2022/04/16 03:53:16;;;;;;;;;;;11.30;93.10;;;;;;4911618;29;19911;-80
2022/04/16 04:01:10;;;;;;;;;;;11.20;93.30;;;;;;4910528;29;19935;-82
2022/04/16 04:03:38;;;;;;;;;;;11.50;94.10;;;;;;4900789;29;19916;-82
2022/04/16 04:06:04;;;;;;;;;;;11.30;93.10;;;;;;4888271;29;19951;-81
2022/04/16 04:08:35;;;;;;;;;;;11.20;93.60;;;;;;4905979;29;19915;-82
2022/04/16 04:11:06;;;;;;;;;;;11.20;93.50;;;;;;4901099;29;19928;-82
2022/04/16 04:13:32;;;;;;;;;;;11.30;93.60;;;;;;4906433;29;19927;-81
2022/04/16 04:15:58;;;;;;;;;;;11.10;93.90;;;;;;4892328;29;19911;-82
2022/04/16 04:18:24;;;;;;;;;;;8.80;93.50;;;;;;4907645;29;19915;-82
2022/04/16 04:20:56;;;;;;;;;;;11.70;94.40;;;;;;4906128;29;20006;-83
2022/04/16 04:23:25;;;;;;;;;;;11.20;93.60;;;;;;4889751;29;19915;-82
2022/04/16 04:25:52;;;;;;;;;;;10.30;93.30;;;;;;4979118;28;19976;-83
2022/04/16 04:28:18;;;;;;;;;;;11.70;93.70;;;;;;4990884;28;19914;-83
2022/04/16 04:30:44;;;;;;;;;;;11.30;93.70;;;;;;4988217;28;20301;-82
2022/04/16 04:33:12;;;;;;;;;;;11.40;93.40;;;;;;4989670;28;20293;-82
2022/04/16 04:35:37;;;;;;;;;;;11.50;93.40;;;;;;4986311;28;19909;-82
2022/04/16 04:38:05;;;;;;;;;;;11.40;93.40;;;;;;4989629;28;20291;-83
2022/04/16 04:40:31;;;;;;;;;;;11.50;93.40;;;;;;4990619;28;20091;-83
2022/04/16 04:43:00;;;;;;;;;;;11.50;93.60;;;;;;4988965;28;19925;-82
2022/04/16 04:45:26;;;;;;;;;;;11.60;93.20;;;;;;4994416;28;19925;-84
2022/04/16 04:47:52;;;;;;;;;;;11.60;93.70;;;;;;5003704;28;20183;-82
2022/04/16 04:50:17;;;;;;;;;;;11.60;93.40;;;;;;5002835;28;19913;-86
2022/04/16 04:52:43;;;;;;;;;;;11.80;93.20;;;;;;4986023;28;20426;-84
2022/04/16 04:55:10;;;;;;;;;;;11.70;93.00;;;;;;5002430;28;19910;-82
2022/04/16 04:57:36;;;;;;;;;;;13.50;93.40;;;;;;4984198;28;19936;-82
2022/04/16 05:00:03;;;;;;;;;;;11.80;93.20;;;;;;4984810;28;19913;-84
2022/04/16 05:02:36;;;;;;;;;;;11.00;92.80;;;;;;5001959;28;20408;-84
2022/04/16 05:05:02;;;;;;;;;;;11.90;93.00;;;;;;5001986;28;20159;-82
2022/04/16 05:07:27;;;;;;;;;;;11.90;93.20;;;;;;4984489;28;19921;-84
2022/04/16 05:09:53;;;;;;;;;;;11.90;93.10;;;;;;4984934;28;19959;-83
2022/04/16 05:12:19;;;;;;;;;;;12.30;93.50;;;;;;5006425;28;20157;-83
2022/04/16 05:14:45;;;;;;;;;;;12.10;93.00;;;;;;5005360;28;19914;-83
2022/04/16 05:17:10;;;;;;;;;;;15.00;94.10;;;;;;4988888;28;20015;-82
2022/04/16 05:19:36;;;;;;;;;;;12.10;92.60;;;;;;4985587;28;20300;-83
2022/04/16 05:22:02;;;;;;;;;;;12.20;92.40;;;;;;5001333;28;20585;-85
2022/04/16 05:24:27;;;;;;;;;;;12.40;93.50;;;;;;5001253;28;20308;-82
2022/04/16 05:26:53;;;;;;;;;;;13.00;92.70;;;;;;5001021;28;19914;-82
2022/04/16 05:29:18;;;;;;;;;;;14.20;93.30;;;;;;4999459;28;20307;-84
2022/04/16 05:31:44;;;;;;;;;;;10.80;92.20;;;;;;5000417;28;19917;-84
2022/04/16 05:34:19;;;;;;;;;;;9.50;91.80;;;;;;4999963;28;19910;-85
2022/04/16 05:36:48;;;;;;;;;;;12.50;92.20;;;;;;5000381;28;19914;-82
2022/04/16 05:39:14;;;;;;;;;;;12.90;92.40;;;;;;5000465;28;19928;-82
2022/04/16 05:41:40;;;;;;;;;;;12.30;92.20;;;;;;5000200;28;19910;-84
2022/04/16 05:44:05;;;;;;;;;;;12.30;92.30;;;;;;4982034;28;19921;-82
2022/04/16 05:46:31;;;;;;;;;;;12.40;93.00;;;;;;4999969;28;19921;-86
2022/04/16 05:48:57;;;;;;;;;;;12.30;92.70;;;;;;4981950;28;20030;-84
2022/04/16 05:51:24;;;;;;;;;;;12.60;92.40;;;;;;5000151;28;20207;-83
2022/04/16 05:53:50;;;;;;;;;;;13.70;92.90;;;;;;4983662;28;19914;-82
2022/04/16 05:56:16;;;;;;;;;;;12.60;92.50;;;;;;4983507;28;20020;-81
2022/04/16 05:58:47;;;;;;;;;;;13.00;92.70;;;;;;5005496;28;19910;-83
2022/04/16 06:01:13;;;;;;;;;;;12.60;92.40;;;;;;5017173;28;19910;-88
2022/04/16 06:03:44;;;;;;;;;;;12.30;92.40;;;;;;4997304;28;19910;-83
2022/04/16 06:06:10;;;;;;;;;;;12.60;92.50;;;;;;4999329;28;19925;-85
2022/04/16 06:08:36;;;;;;;;;;;12.50;92.50;;;;;;4993976;28;20308;-83
2022/04/16 06:11:03;;;;;;;;;;;12.60;92.50;;;;;;5002363;28;19945;-84
2022/04/16 06:13:30;;;;;;;;;;;12.60;91.90;;;;;;4984214;28;19910;-84
2022/04/16 06:15:56;;;;;;;;;;;12.40;91.90;;;;;;4983238;28;20285;-83
2022/04/16 06:18:21;;;;;;;;;;;12.60;91.90;;;;;;4982612;28;19909;-85
2022/04/16 06:20:47;;;;;;;;;;;12.70;91.90;;;;;;4983007;28;20109;-86
2022/04/16 06:23:13;;;;;;;;;;;12.70;91.90;;;;;;5019663;28;19924;-85
2022/04/16 06:25:38;;;;;;;;;;;12.80;91.70;;;;;;5019927;28;19918;-82
2022/04/16 06:28:04;;;;;;;;;;;12.80;91.70;;;;;;5015009;28;20327;-85
2022/04/16 06:30:30;;;;;;;;;;;12.90;91.50;;;;;;5002189;28;20265;-82
2022/04/16 06:32:55;;;;;;;;;;;13.00;91.70;;;;;;5002086;28;20600;-86
2022/04/16 06:35:21;;;;;;;;;;;13.10;91.40;;;;;;5001378;28;19913;-85
2022/04/16 06:37:46;;;;;;;;;;;13.20;91.30;;;;;;4982797;28;19925;-86
2022/04/16 06:40:12;;;;;;;;;;;13.20;91.20;;;;;;5000239;28;19921;-82
2022/04/16 06:42:38;;;;;;;;;;;13.30;91.00;;;;;;5000010;28;19909;-85
2022/04/16 06:45:08;;;;;;;;;;;13.10;90.90;;;;;;4999716;28;20304;-83
2022/04/16 06:47:34;;;;;;;;;;;13.10;91.00;;;;;;4999759;28;19909;-85
2022/04/16 06:49:59;;;;;;;;;;;13.10;91.20;;;;;;4999385;28;19932;-82
2022/04/16 06:52:25;;;;;;;;;;;13.10;91.40;;;;;;4981972;28;20558;-84
2022/04/16 06:54:50;;;;;;;;;;;12.50;91.10;;;;;;4981631;28;19988;-85
2022/04/16 06:57:16;;;;;;;;;;;13.00;91.80;;;;;;4999603;28;19952;-85
2022/04/16 06:59:42;;;;;;;;;;;13.00;91.60;;;;;;4981878;28;19909;-84
2022/04/16 07:02:08;;;;;;;;;;;12.90;92.00;;;;;;5000341;28;20378;-86
2022/04/16 07:04:35;;;;;;;;;;;12.80;92.00;;;;;;5000186;28;19922;-84
2022/04/16 07:07:01;;;;;;;;;;;12.80;91.90;;;;;;4999996;28;19924;-87
2022/04/16 07:09:27;;;;;;;;;;;10.90;91.70;;;;;;4982250;28;19914;-83
2022/04/16 07:11:53;;;;;;;;;;;13.10;92.80;;;;;;4982505;28;20304;-83
2022/04/16 07:14:19;;;;;;;;;;;12.80;92.30;;;;;;5000487;28;20281;-84
2022/04/16 07:16:44;;;;;;;;;;;13.00;92.10;;;;;;4982585;28;20108;-84
2022/04/16 07:19:16;;;;;;;;;;;12.80;92.30;;;;;;5000263;28;19917;-87
2022/04/16 07:21:41;;;;;;;;;;;12.90;92.40;;;;;;4982674;28;19952;-84
2022/04/16 07:24:07;;;;;;;;;;;13.60;92.30;;;;;;4999989;28;20023;-83
2022/04/16 07:26:32;;;;;;;;;;;13.00;92.20;;;;;;4999763;28;20308;-84
2022/04/16 07:28:58;;;;;;;;;;;13.60;92.50;;;;;;4982803;28;19910;-83
2022/04/16 07:31:24;;;;;;;;;;;13.90;92.10;;;;;;5000535;28;19918;-82
2022/04/16 07:33:51;;;;;;;;;;;13.70;92.50;;;;;;5000324;28;19910;-86
2022/04/16 07:36:17;;;;;;;;;;;13.00;92.20;;;;;;5000106;28;20111;-82
2022/04/16 07:38:43;;;;;;;;;;;13.00;91.40;;;;;;4982645;28;20403;-82
2022/04/16 07:41:09;;;;;;;;;;;13.50;91.70;;;;;;4999700;28;19953;-83
2022/04/16 07:43:35;;;;;;;;;;;13.80;91.80;;;;;;4999455;28;19940;-86
2022/04/16 07:46:00;;;;;;;;;;;14.90;92.10;;;;;;4999500;28;19929;-85
2022/04/16 07:48:26;;;;;;;;;;;13.50;91.80;;;;;;4981700;28;20412;-82
2022/04/16 07:50:52;;;;;;;;;;;13.30;91.60;;;;;;4999968;28;20048;-84
2022/04/16 07:53:17;;;;;;;;;;;13.50;91.30;;;;;;4985380;28;19939;-86
2022/04/16 07:55:43;;;;;;;;;;;13.90;90.90;;;;;;5003842;28;20007;-81
2022/04/16 07:58:09;;;;;;;;;;;13.80;90.80;;;;;;4986804;28;19905;-81
2022/04/16 08:00:34;;;;;;;;;;;14.40;90.20;;;;;;4985010;28;20187;-83
2022/04/16 08:03:03;;;;;;;;;;;12.70;89.50;;;;;;5002837;28;19992;-81
2022/04/16 08:05:29;;;;;;;;;;;14.50;88.50;;;;;;4984630;28;20344;-83
2022/04/16 08:07:54;;;;;;;;;;;13.90;89.10;;;;;;5003008;28;20098;-85
2022/04/16 08:10:20;;;;;;;;;;;14.50;87.30;;;;;;5002795;28;19909;-81
2022/04/16 08:12:46;;;;;;;;;;;14.70;86.60;;;;;;4984254;28;19921;-82
2022/04/16 08:15:14;;;;;;;;;;;14.90;87.50;;;;;;4984692;28;20071;-83
2022/04/16 08:17:40;;;;;;;;;;;14.80;84.90;;;;;;5001947;28;20602;-82
2022/04/16 08:20:06;;;;;;;;;;;14.90;83.90;;;;;;5002280;28;19913;-81
2022/04/16 08:22:34;;;;;;;;;;;16.80;85.00;;;;;;5002178;28;20000;-83
2022/04/16 08:27:45;;;;;;;;;;;14.20;81.90;;;;;;5001693;28;20553;-84
2022/04/16 08:30:12;;;;;;;;;;;15.10;81.40;;;;;;4984423;28;19913;-85
2022/04/16 08:32:40;;;;;;;;;;;15.80;81.20;;;;;;4984432;28;20091;-85
2022/04/16 08:35:09;;;;;;;;;;;15.30;80.70;;;;;;5001973;28;19913;-84
2022/04/16 08:37:35;;;;;;;;;;;15.20;81.30;;;;;;4983552;28;19921;-81
2022/04/16 08:40:03;;;;;;;;;;;15.50;81.00;;;;;;5001273;28;19916;-84
2022/04/16 08:42:29;;;;;;;;;;;15.00;82.50;;;;;;5001164;28;19909;-81
2022/04/16 08:44:56;;;;;;;;;;;14.90;80.10;;;;;;5001235;28;20257;-83
2022/04/16 08:47:21;;;;;;;;;;;14.20;79.90;;;;;;4983997;28;20319;-83
2022/04/16 08:49:50;;;;;;;;;;;14.90;81.70;;;;;;5002427;28;19909;-85
2022/04/16 08:52:17;;;;;;;;;;;14.30;81.80;;;;;;5001260;28;20407;-83
2022/04/16 08:54:43;;;;;;;;;;;14.60;81.90;;;;;;5001743;28;20591;-83
2022/04/16 08:57:08;;;;;;;;;;;14.50;83.50;;;;;;4983692;28;19956;-84
2022/04/16 08:59:34;;;;;;;;;;;14.50;85.00;;;;;;5001052;28;19909;-83
2022/04/16 09:02:00;;;;;;;;;;;13.70;85.80;;;;;;5001913;28;20400;-87
2022/04/16 09:04:27;;;;;;;;;;;15.20;87.70;;;;;;5001103;28;20206;-86
2022/04/16 09:06:57;;;;;;;;;;;14.20;86.00;;;;;;5001953;28;20391;-85
2022/04/16 09:09:23;;;;;;;;;;;14.00;85.60;;;;;;5001868;28;20122;-84
2022/04/16 09:11:49;;;;;;;;;;;13.80;86.50;;;;;;5001713;28;20554;-85
2022/04/16 09:14:15;;;;;;;;;;;14.00;86.90;;;;;;4989156;28;19909;-86
2022/04/16 09:16:41;;;;;;;;;;;12.30;86.80;;;;;;5015673;28;20260;-84
2022/04/16 09:19:11;;;;;;;;;;;14.00;86.30;;;;;;4996604;28;19909;-84
2022/04/16 09:21:37;;;;;;;;;;;14.20;86.20;;;;;;5013676;28;20044;-84
2022/04/16 09:24:03;;;;;;;;;;;14.30;85.70;;;;;;5013121;28;19922;-83
2022/04/16 09:26:32;;;;;;;;;;;14.30;84.40;;;;;;5006412;28;19909;-81
2022/04/16 09:29:08;;;;;;;;;;;14.40;83.80;;;;;;4987537;28;20411;-87
2022/04/16 09:31:34;;;;;;;;;;;14.30;83.80;;;;;;4985262;28;20321;-85
2022/04/16 09:34:00;;;;;;;;;;;14.20;83.90;;;;;;5002285;28;19920;-85
2022/04/16 09:36:29;;;;;;;;;;;14.40;84.70;;;;;;5002279;28;19918;-86
2022/04/16 09:39:05;;;;;;;;;;;15.00;83.60;;;;;;4986123;28;19940;-83
2022/04/16 09:41:31;;;;;;;;;;;14.00;82.60;;;;;;4985318;28;20036;-86
2022/04/16 09:43:57;;;;;;;;;;;14.60;83.40;;;;;;5002075;28;19914;-83
2022/04/16 09:46:26;;;;;;;;;;;14.10;83.10;;;;;;5001243;28;19928;-83
2022/04/16 09:48:51;;;;;;;;;;;14.10;81.80;;;;;;5003493;28;19956;-89
2022/04/16 09:51:19;;;;;;;;;;;13.90;82.30;;;;;;4985592;28;20311;-84
2022/04/16 09:53:48;;;;;;;;;;;14.00;83.10;;;;;;4985856;28;19952;-90
2022/04/16 09:56:16;;;;;;;;;;;13.90;82.50;;;;;;5002779;28;19909;-86
2022/04/16 09:58:44;;;;;;;;;;;14.00;83.90;;;;;;4984161;28;20234;-86
2022/04/16 10:01:13;;;;;;;;;;;10.10;81.50;;;;;;5001968;28;19913;-88
2022/04/16 10:03:39;;;;;;;;;;;15.60;85.80;;;;;;5001582;28;19976;-83
2022/04/16 10:06:06;;;;;;;;;;;13.60;84.60;;;;;;5001557;28;19925;-84
2022/04/16 10:08:32;;;;;;;;;;;13.90;85.40;;;;;;5001138;28;20609;-83
2022/04/16 10:11:02;;;;;;;;;;;12.40;84.70;;;;;;4984007;28;20278;-81
2022/04/16 10:13:31;;;;;;;;;;;13.30;86.00;;;;;;5000918;28;20446;-84
2022/04/16 10:15:57;;;;;;;;;;;13.30;85.10;;;;;;5001380;28;20269;-85
2022/04/16 10:18:23;;;;;;;;;;;13.60;85.50;;;;;;5000800;28;19921;-83
2022/04/16 10:20:50;;;;;;;;;;;12.70;85.30;;;;;;5000999;28;19909;-85
2022/04/16 10:23:23;;;;;;;;;;;13.30;86.00;;;;;;5000310;28;19917;-82
2022/04/16 10:25:49;;;;;;;;;;;13.40;86.30;;;;;;4981121;28;19918;-80
2022/04/16 10:28:23;;;;;;;;;;;13.30;85.80;;;;;;4981991;28;19929;-83
2022/04/16 10:30:52;;;;;;;;;;;13.30;85.90;;;;;;5000186;28;19913;-86
2022/04/16 10:33:19;;;;;;;;;;;13.40;86.00;;;;;;5001340;28;20111;-84
2022/04/16 10:35:52;;;;;;;;;;;13.40;85.30;;;;;;5000614;28;19916;-80
2022/04/16 10:38:22;;;;;;;;;;;13.50;85.80;;;;;;5000995;28;19909;-85
2022/04/16 10:40:58;;;;;;;;;;;11.40;84.70;;;;;;5000939;28;19917;-83
2022/04/16 10:43:27;;;;;;;;;;;13.40;86.10;;;;;;5001649;28;19944;-81
2022/04/16 10:46:06;;;;;;;;;;;13.30;86.30;;;;;;4985179;28;19941;-81
2022/04/16 10:48:33;;;;;;;;;;;13.20;86.20;;;;;;4987869;28;20558;-83
2022/04/16 10:50:59;;;;;;;;;;;13.10;86.90;;;;;;5005186;28;19925;-84
2022/04/16 10:53:29;;;;;;;;;;;11.20;86.80;;;;;;4995899;28;19913;-87
2022/04/16 10:55:55;;;;;;;;;;;13.00;86.80;;;;;;4995919;28;20012;-84
2022/04/16 10:58:28;;;;;;;;;;;13.20;87.30;;;;;;5006641;28;19910;-85
2022/04/16 11:01:04;;;;;;;;;;;13.50;87.40;;;;;;5008628;28;19909;-85
2022/04/16 11:03:33;;;;;;;;;;;12.90;87.10;;;;;;5007023;28;19917;-85
2022/04/16 11:06:05;;;;;;;;;;;12.90;88.00;;;;;;4986617;28;19934;-85
2022/04/16 11:08:35;;;;;;;;;;;12.80;87.60;;;;;;4987675;28;19972;-85
2022/04/16 11:11:03;;;;;;;;;;;12.90;87.00;;;;;;5005139;28;20110;-83
2022/04/16 11:13:32;;;;;;;;;;;12.90;87.50;;;;;;5003846;28;20541;-82
2022/04/16 11:16:04;;;;;;;;;;;13.00;87.70;;;;;;4984085;28;19914;-86
2022/04/16 11:18:42;;;;;;;;;;;13.20;87.50;;;;;;4985049;28;19910;-86
2022/04/16 11:35:40;;;;;;;;;;;13.60;84.20;;;;;;5175765;22;19969;-87
2022/04/16 11:38:06;;;;;;;;;;;13.80;83.30;;;;;;4985198;28;20355;-88
2022/04/16 11:40:32;;;;;;;;;;;13.90;82.00;;;;;;4985992;28;19913;-89
2022/04/16 11:42:57;;;;;;;;;;;13.90;81.30;;;;;;5003983;28;19952;-89
2022/04/16 11:45:23;;;;;;;;;;;14.00;81.40;;;;;;5003072;28;19945;-88
2022/04/16 11:47:48;;;;;;;;;;;14.10;80.50;;;;;;5003099;28;20388;-85
2022/04/16 11:50:16;;;;;;;;;;;14.00;80.40;;;;;;5007524;28;20391;-87
2022/04/16 11:52:48;;;;;;;;;;;14.00;80.60;;;;;;4984702;28;19910;-89
2022/04/16 11:55:15;;;;;;;;;;;13.90;80.90;;;;;;4990805;28;19913;-90
2022/04/16 11:57:47;;;;;;;;;;;13.90;81.10;;;;;;4992404;28;19913;-88
2022/04/16 12:00:14;;;;;;;;;;;13.80;81.30;;;;;;4993880;28;19991;-90
2022/04/16 12:02:40;;;;;;;;;;;13.70;81.70;;;;;;4987698;28;19912;-89
2022/04/16 12:11:03;;;;;;;;;;;13.80;81.00;;;;;;5170502;23;19937;-84
2022/04/16 12:13:36;;;;;;;;;;;14.00;80.30;;;;;;4982333;28;20221;-84
2022/04/16 12:21:42;;;;;;;;;;;14.60;78.40;;;;;;5111289;23;20192;-83
2022/04/16 12:24:09;;;;;;;;;;;14.70;77.30;;;;;;4960657;28;19926;-83
2022/04/16 12:26:35;;;;;;;;;;;14.80;77.60;;;;;;4945113;28;20352;-83
2022/04/16 12:29:08;;;;;;;;;;;15.00;77.20;;;;;;4962605;28;19977;-84
2022/04/16 12:31:34;;;;;;;;;;;15.10;76.80;;;;;;4963209;28;20248;-82
2022/04/16 12:34:00;;;;;;;;;;;12.20;74.00;;;;;;4946218;28;20567;-85
2022/04/16 12:36:25;;;;;;;;;;;15.10;75.30;;;;;;4956491;28;19925;-83
2022/04/16 12:38:51;;;;;;;;;;;15.10;75.20;;;;;;4963457;28;19910;-82
2022/04/16 12:41:19;;;;;;;;;;;15.00;75.00;;;;;;4962904;28;19906;-82
2022/04/16 12:43:46;;;;;;;;;;;15.10;75.10;;;;;;4962507;28;20029;-85
2022/04/16 12:46:11;;;;;;;;;;;15.00;75.30;;;;;;4962399;28;19990;-87
2022/04/16 12:48:37;;;;;;;;;;;15.00;75.40;;;;;;4963180;28;19914;-85
2022/04/16 12:51:02;;;;;;;;;;;15.00;75.50;;;;;;4945540;28;19914;-82
2022/04/16 12:53:28;;;;;;;;;;;15.00;75.90;;;;;;4962476;28;19917;-86
2022/04/16 12:55:54;;;;;;;;;;;14.80;76.60;;;;;;4945057;28;19972;-83
2022/04/16 12:58:19;;;;;;;;;;;14.80;76.00;;;;;;4968420;28;19914;-85
2022/04/16 13:00:45;;;;;;;;;;;14.80;75.00;;;;;;4946009;28;20453;-86
2022/04/16 13:03:12;;;;;;;;;;;14.80;75.90;;;;;;4962621;28;19917;-88
2022/04/16 13:05:41;;;;;;;;;;;14.80;75.50;;;;;;4963164;28;19981;-86
2022/04/16 13:08:07;;;;;;;;;;;14.80;74.80;;;;;;4963978;28;20028;-85
2022/04/16 13:10:33;;;;;;;;;;;14.70;75.10;;;;;;4955207;28;19914;-84
2022/04/16 13:13:08;;;;;;;;;;;14.60;75.10;;;;;;4962699;28;19914;-89
2022/04/16 13:15:33;;;;;;;;;;;14.40;75.90;;;;;;4963586;28;19922;-87
2022/04/16 13:17:59;;;;;;;;;;;14.30;77.10;;;;;;4963112;28;19974;-85
2022/04/16 13:20:25;;;;;;;;;;;14.10;76.90;;;;;;4978179;28;20578;-86
2022/04/16 13:22:50;;;;;;;;;;;14.00;77.70;;;;;;4984101;28;19917;-86
2022/04/16 13:25:16;;;;;;;;;;;14.00;78.30;;;;;;4964849;28;19922;-89
2022/04/16 13:27:41;;;;;;;;;;;13.80;78.00;;;;;;4969863;28;20472;-87
2022/04/16 13:37:53;;;;;;;;;;;13.70;78.30;;;;;;5321558;23;19934;-89
2022/04/16 13:43:03;;;;;;;;;;;14.80;79.70;;;;;;4965086;28;19929;-88
2022/04/16 13:45:34;;;;;;;;;;;13.30;79.00;;;;;;4964852;28;20525;-88
2022/04/16 13:48:00;;;;;;;;;;;13.80;79.70;;;;;;4950011;28;19910;-87
2022/04/16 13:50:25;;;;;;;;;;;13.30;80.40;;;;;;4948509;28;20585;-84
2022/04/16 13:52:51;;;;;;;;;;;13.30;79.90;;;;;;4957033;23;19922;-83
2022/04/16 13:55:26;;;;;;;;;;;13.10;79.80;;;;;;4963895;28;19906;-87
2022/04/16 13:57:52;;;;;;;;;;;13.60;80.00;;;;;;4997574;23;19930;-88
2022/04/16 14:00:30;;;;;;;;;;;13.30;80.00;;;;;;4964483;28;19910;-88
2022/04/16 14:03:04;;;;;;;;;;;13.00;79.00;;;;;;4964672;28;19914;-86
2022/04/16 14:05:45;;;;;;;;;;;13.30;79.20;;;;;;4989016;28;20205;-86
2022/04/16 14:08:12;;;;;;;;;;;14.30;80.10;;;;;;4966101;28;19909;-86
2022/04/16 14:10:39;;;;;;;;;;;13.30;79.60;;;;;;4983215;28;20114;-84
2022/04/16 14:13:08;;;;;;;;;;;13.30;76.60;;;;;;4989428;23;19937;-88
2022/04/16 14:15:50;;;;;;;;;;;13.70;76.40;;;;;;4989792;23;20400;-88
2022/04/16 14:18:15;;;;;;;;;;;13.90;76.70;;;;;;4968100;23;20368;-87
2022/04/16 14:20:42;;;;;;;;;;;11.30;75.80;;;;;;4961585;28;19929;-86
2022/04/16 14:23:07;;;;;;;;;;;13.00;75.00;;;;;;4963105;28;20616;-87
2022/04/16 14:25:33;;;;;;;;;;;12.90;75.80;;;;;;4964258;28;20404;-87
2022/04/16 14:27:59;;;;;;;;;;;12.80;75.90;;;;;;4965263;28;19911;-86
2022/04/16 14:30:43;;;;;;;;;;;12.80;77.00;;;;;;4965233;28;19910;-88
2022/04/16 14:33:10;;;;;;;;;;;12.20;75.50;;;;;;4976430;28;19914;-84
2022/04/16 14:35:48;;;;;;;;;;;9.40;74.10;;;;;;4963713;28;19964;-88
2022/04/16 14:38:13;;;;;;;;;;;11.40;72.70;;;;;;4964031;28;19910;-84
2022/04/16 14:41:09;;;;;;;;;;;12.80;73.40;;;;;;4972919;28;19989;-88
2022/04/16 14:43:58;;;;;;;;;;;13.00;74.70;;;;;;4972718;28;19917;-87
2022/04/16 14:46:45;;;;;;;;;;;13.30;76.50;;;;;;4975260;28;19997;-87
2022/04/16 14:49:15;;;;;;;;;;;13.10;77.10;;;;;;4972390;28;20060;-87
2022/04/16 14:51:55;;;;;;;;;;;13.50;78.40;;;;;;4969462;28;19910;-85
2022/04/16 14:54:32;;;;;;;;;;;12.10;77.60;;;;;;4972119;28;19914;-88
2022/04/16 14:57:10;;;;;;;;;;;13.00;78.50;;;;;;4963424;28;19960;-83
2022/04/16 14:59:44;;;;;;;;;;;13.30;78.80;;;;;;4943316;29;19918;-84
2022/04/16 15:02:13;;;;;;;;;;;15.20;76.00;;;;;;4944661;29;19910;-84
2022/04/16 15:04:38;;;;;;;;;;;13.30;74.10;;;;;;4942586;29;19930;-86
2022/04/16 15:07:04;;;;;;;;;;;12.80;74.70;;;;;;4943007;29;20389;-85
2022/04/16 15:09:39;;;;;;;;;;;12.90;73.80;;;;;;4942493;29;19914;-90
2022/04/16 15:12:05;;;;;;;;;;;13.00;73.80;;;;;;4943366;29;20090;-85
2022/04/16 15:14:31;;;;;;;;;;;12.90;73.10;;;;;;4943195;29;20018;-80